METAR Data
IDs: Format: Raw Decoded Include TAF

Data at: 2233 UTC 02 Aug 2021

EDDC 022220Z 22005KT CAVOK 14/11 Q1014